createdAt,value
2023-01-15T00:01:38.881Z,72.68
2023-01-15T00:04:09.899Z,72.71
2023-01-15T00:06:41.800Z,72.73
2023-01-15T00:09:13.546Z,72.56
2023-01-15T00:11:44.317Z,72.25
2023-01-15T00:14:14.956Z,72.40
2023-01-15T00:16:45.658Z,72.18
2023-01-15T00:19:16.316Z,72.40
2023-01-15T00:21:46.987Z,72.52
2023-01-15T00:24:35.197Z,72.47
2023-01-15T00:27:23.528Z,72.52
2023-01-15T00:29:54.165Z,72.45
2023-01-15T00:32:27.388Z,72.55
2023-01-15T00:34:59.504Z,72.35
2023-01-15T00:37:30.123Z,72.41
2023-01-15T00:40:00.707Z,72.72
2023-01-15T00:42:31.500Z,72.42
2023-01-15T00:45:10.067Z,72.49
2023-01-15T00:47:41.841Z,72.49
2023-01-15T00:50:14.090Z,72.70
2023-01-15T00:52:44.771Z,72.89
2023-01-15T00:55:15.494Z,73.01
2023-01-15T00:57:46.158Z,72.86
2023-01-15T01:00:17.403Z,72.81
2023-01-15T01:02:48.119Z,72.75
2023-01-15T01:05:19.006Z,72.43
2023-01-15T01:07:49.616Z,72.26
2023-01-15T01:10:20.330Z,72.13
2023-01-15T01:12:52.420Z,72.65
2023-01-15T01:15:23.327Z,72.19
2023-01-15T01:17:54.051Z,72.74
2023-01-15T01:20:24.705Z,72.42
2023-01-15T01:22:55.675Z,72.55
2023-01-15T01:25:26.593Z,72.29
2023-01-15T01:27:57.454Z,72.29
2023-01-15T01:30:28.181Z,72.23
2023-01-15T01:32:59.049Z,72.30
2023-01-15T01:35:29.696Z,72.34
2023-01-15T01:38:00.482Z,72.71
2023-01-15T01:40:31.245Z,72.99
2023-01-15T01:43:01.895Z,72.84
2023-01-15T01:45:33.247Z,73.00
2023-01-15T01:48:04.664Z,72.68
2023-01-15T01:50:35.448Z,72.61
2023-01-15T01:53:07.714Z,72.85
2023-01-15T01:55:38.455Z,72.58
2023-01-15T01:58:10.029Z,72.93
2023-01-15T02:00:41.513Z,72.48
2023-01-15T02:03:12.177Z,72.51
2023-01-15T02:05:44.233Z,72.55
2023-01-15T02:08:14.884Z,72.96
2023-01-15T02:10:45.545Z,72.87
2023-01-15T02:13:18.099Z,73.04
2023-01-15T02:15:49.554Z,72.79
2023-01-15T02:18:20.863Z,73.06
2023-01-15T02:20:51.929Z,73.28
2023-01-15T02:23:38.945Z,73.23
2023-01-15T02:26:26.922Z,73.07
2023-01-15T02:28:58.144Z,72.85
2023-01-15T02:31:30.159Z,72.98
2023-01-15T02:34:02.329Z,72.82
2023-01-15T02:36:34.608Z,73.04
2023-01-15T02:39:06.909Z,73.12
2023-01-15T02:41:38.464Z,72.94
2023-01-15T02:44:09.193Z,73.04
2023-01-15T02:46:39.795Z,73.17
2023-01-15T02:49:10.741Z,73.00
2023-01-15T02:51:42.802Z,72.77
2023-01-15T02:54:14.614Z,72.88
2023-01-15T02:56:45.833Z,73.03
2023-01-15T02:59:18.840Z,73.20
2023-01-15T03:01:51.596Z,73.11
2023-01-15T03:04:24.248Z,73.10
2023-01-15T03:06:56.533Z,73.22
2023-01-15T03:09:27.149Z,73.02
2023-01-15T03:12:06.093Z,73.15
2023-01-15T03:14:38.010Z,73.40
2023-01-15T03:17:10.863Z,73.45
2023-01-15T03:19:42.769Z,73.23
2023-01-15T03:22:14.500Z,73.43
2023-01-15T03:24:45.522Z,73.08
2023-01-15T03:27:16.347Z,73.03
2023-01-15T03:29:47.520Z,73.29
2023-01-15T03:32:18.353Z,73.26
2023-01-15T03:34:50.451Z,73.09
2023-01-15T03:37:21.396Z,73.33
2023-01-15T03:39:52.173Z,73.38
2023-01-15T03:42:24.894Z,73.38
2023-01-15T03:44:57.101Z,73.17
2023-01-15T03:47:31.398Z,73.46
2023-01-15T03:50:03.889Z,73.66
2023-01-15T03:52:34.984Z,73.64
2023-01-15T03:55:08.618Z,73.65
2023-01-15T03:57:40.372Z,73.29
2023-01-15T04:00:12.360Z,73.61
2023-01-15T04:02:43.126Z,73.86
2023-01-15T04:05:13.832Z,73.89
2023-01-15T04:07:44.571Z,73.84
2023-01-15T04:10:15.345Z,73.79
2023-01-15T04:12:46.027Z,73.89
2023-01-15T04:15:17.018Z,73.82
2023-01-15T04:17:47.610Z,74.15
2023-01-15T04:20:18.376Z,73.79
2023-01-15T04:22:48.979Z,73.80
2023-01-15T04:25:19.847Z,73.83
2023-01-15T04:27:50.636Z,73.81
2023-01-15T04:30:21.395Z,73.99
2023-01-15T04:32:52.337Z,74.08
2023-01-15T04:35:23.091Z,73.84
2023-01-15T04:37:56.956Z,73.74
2023-01-15T04:40:45.172Z,73.72
2023-01-15T04:43:33.942Z,74.18
2023-01-15T04:46:04.685Z,74.21
2023-01-15T04:48:35.345Z,73.87
2023-01-15T04:51:06.715Z,74.07
2023-01-15T04:53:37.282Z,73.88
2023-01-15T04:56:08.316Z,74.19
2023-01-15T04:58:39.039Z,73.75
2023-01-15T05:01:13.268Z,73.39
2023-01-15T05:03:44.169Z,73.60
2023-01-15T05:06:15.462Z,73.78
2023-01-15T05:08:46.113Z,74.11
2023-01-15T05:11:16.761Z,74.28
2023-01-15T05:13:47.604Z,74.00
2023-01-15T05:16:19.417Z,74.13
2023-01-15T05:18:50.183Z,73.79
2023-01-15T05:21:21.932Z,74.27
2023-01-15T05:23:53.153Z,74.10
2023-01-15T05:26:24.299Z,73.90
2023-01-15T05:28:56.230Z,74.04
2023-01-15T05:31:27.092Z,74.27
2023-01-15T05:33:57.994Z,74.14
2023-01-15T05:36:29.698Z,73.87
2023-01-15T05:39:02.430Z,74.19
2023-01-15T05:41:51.660Z,74.39
2023-01-15T05:44:23.982Z,73.92
2023-01-15T05:46:55.792Z,74.05
2023-01-15T05:49:27.629Z,74.00
2023-01-15T05:51:58.655Z,73.64
2023-01-15T05:54:30.083Z,73.69
2023-01-15T05:57:01.603Z,73.54
2023-01-15T05:59:32.757Z,73.37
2023-01-15T06:02:03.582Z,73.64
2023-01-15T06:04:34.280Z,73.71
2023-01-15T06:07:04.983Z,74.05
2023-01-15T06:09:35.768Z,73.87
2023-01-15T06:12:06.893Z,74.22
2023-01-15T06:14:37.786Z,74.03
2023-01-15T06:17:08.562Z,74.05
2023-01-15T06:19:39.283Z,74.12
2023-01-15T06:22:11.122Z,73.57
2023-01-15T06:24:42.017Z,73.34
2023-01-15T06:27:12.717Z,73.54
2023-01-15T06:29:43.549Z,73.80
2023-01-15T06:32:15.045Z,73.97
2023-01-15T06:34:45.826Z,73.92
2023-01-15T06:37:16.666Z,74.03
2023-01-15T06:39:47.348Z,73.99
2023-01-15T06:42:35.588Z,74.04
2023-01-15T06:45:24.399Z,73.69
2023-01-15T06:47:55.100Z,73.59
2023-01-15T06:50:25.858Z,73.90
2023-01-15T06:52:56.681Z,73.67
2023-01-15T06:55:27.555Z,73.99
2023-01-15T06:57:58.365Z,73.87
2023-01-15T07:00:29.111Z,73.94
2023-01-15T07:03:02.196Z,73.85
2023-01-15T07:05:33.063Z,73.78
2023-01-15T07:08:03.967Z,73.72
2023-01-15T07:10:36.370Z,73.78
2023-01-15T07:13:07.618Z,73.77
2023-01-15T07:15:38.700Z,73.79
2023-01-15T07:18:09.409Z,73.61
2023-01-15T07:20:40.142Z,73.67
2023-01-15T07:23:11.385Z,73.63
2023-01-15T07:25:42.115Z,73.84
2023-01-15T07:28:12.911Z,73.79
2023-01-15T07:30:43.605Z,73.74
2023-01-15T07:33:14.373Z,73.63
2023-01-15T07:35:45.832Z,73.77
2023-01-15T07:38:16.476Z,73.77
2023-01-15T07:41:07.543Z,73.83
2023-01-15T07:43:56.076Z,73.55
2023-01-15T07:46:44.384Z,73.72
2023-01-15T07:49:32.601Z,73.57
2023-01-15T07:52:03.365Z,73.98
2023-01-15T07:54:34.253Z,73.70
2023-01-15T07:57:05.919Z,73.28
2023-01-15T07:59:36.607Z,73.57
2023-01-15T08:02:07.442Z,73.62
2023-01-15T08:04:38.414Z,73.14
2023-01-15T08:07:09.332Z,73.12
2023-01-15T08:09:40.174Z,72.74
2023-01-15T08:12:29.432Z,72.83
2023-01-15T08:15:16.722Z,73.26
2023-01-15T08:17:48.076Z,73.15
2023-01-15T08:20:19.665Z,73.46
2023-01-15T08:22:50.347Z,73.44
2023-01-15T08:25:21.896Z,73.66
2023-01-15T08:27:52.801Z,73.17
2023-01-15T08:30:24.552Z,73.43
2023-01-15T08:33:00.101Z,73.18
2023-01-15T08:35:30.887Z,73.07
2023-01-15T08:38:01.572Z,73.26
2023-01-15T08:40:32.245Z,73.44
2023-01-15T08:43:02.943Z,73.13
2023-01-15T08:45:33.688Z,73.26
2023-01-15T08:48:04.463Z,73.30
2023-01-15T08:50:35.258Z,73.64
2023-01-15T08:53:06.009Z,73.51
2023-01-15T08:55:38.484Z,73.12
2023-01-15T08:58:09.421Z,72.95
2023-01-15T09:00:40.494Z,73.42
2023-01-15T09:03:11.508Z,73.33
2023-01-15T09:05:42.367Z,73.06
2023-01-15T09:08:13.159Z,73.20
2023-01-15T09:10:43.922Z,73.20
2023-01-15T09:13:14.747Z,73.09
2023-01-15T09:15:45.690Z,73.32
2023-01-15T09:18:19.472Z,73.13
2023-01-15T09:20:50.370Z,72.94
2023-01-15T09:23:21.276Z,72.94
2023-01-15T09:25:55.534Z,73.09
2023-01-15T09:28:26.316Z,72.93
2023-01-15T09:30:57.117Z,72.96
2023-01-15T09:33:28.701Z,73.08
2023-01-15T09:35:59.447Z,73.18
2023-01-15T09:38:30.155Z,73.14
2023-01-15T09:41:03.029Z,73.04
2023-01-15T09:43:45.033Z,73.39
2023-01-15T09:46:21.795Z,73.39
2023-01-15T09:48:54.081Z,73.28
2023-01-15T09:51:27.381Z,72.83
2023-01-15T09:54:00.631Z,72.93
2023-01-15T09:56:33.174Z,72.89
2023-01-15T09:59:05.393Z,72.81
2023-01-15T10:01:36.179Z,72.84
2023-01-15T10:04:07.787Z,72.71
2023-01-15T10:06:40.970Z,72.69
2023-01-15T10:09:13.473Z,72.72
2023-01-15T10:12:03.035Z,73.18
2023-01-15T10:14:39.651Z,73.02
2023-01-15T10:17:28.751Z,73.12
2023-01-15T10:20:00.770Z,72.81
2023-01-15T10:22:36.238Z,72.49
2023-01-15T10:25:09.229Z,72.67
2023-01-15T10:27:40.337Z,72.70
2023-01-15T10:30:13.171Z,72.54
2023-01-15T10:33:01.107Z,72.76
2023-01-15T10:35:41.720Z,72.67
2023-01-15T10:38:15.650Z,72.70
2023-01-15T10:40:51.272Z,72.63
2023-01-15T10:43:24.611Z,72.52
2023-01-15T10:45:57.914Z,72.31
2023-01-15T10:48:29.954Z,72.24
2023-01-15T10:51:01.870Z,72.44
2023-01-15T10:53:34.078Z,72.13
2023-01-15T10:56:07.926Z,72.23
2023-01-15T10:58:40.849Z,72.18
2023-01-15T11:01:13.307Z,72.52
2023-01-15T11:03:44.842Z,72.57
2023-01-15T11:06:17.272Z,72.27
2023-01-15T11:09:09.264Z,72.17
2023-01-15T11:12:00.216Z,72.10
2023-01-15T11:14:52.611Z,71.93
2023-01-15T11:17:40.611Z,72.00
2023-01-15T11:20:17.708Z,71.92
2023-01-15T11:22:48.328Z,72.01
2023-01-15T11:25:27.728Z,71.93
2023-01-15T11:27:58.589Z,71.89
2023-01-15T11:30:30.848Z,71.99
2023-01-15T11:33:04.246Z,71.99
2023-01-15T11:35:35.759Z,71.85
2023-01-15T11:38:07.596Z,71.79
2023-01-15T11:40:38.857Z,71.79
2023-01-15T11:43:38.425Z,71.69
2023-01-15T11:46:39.199Z,71.49
2023-01-15T11:49:29.261Z,71.55
2023-01-15T11:52:00.121Z,71.37
2023-01-15T11:54:30.780Z,71.38
2023-01-15T11:57:01.535Z,71.36
2023-01-15T11:59:32.298Z,71.46
2023-01-15T12:02:04.603Z,71.47
2023-01-15T12:04:36.432Z,71.44
2023-01-15T12:07:07.594Z,71.29
2023-01-15T12:09:42.510Z,71.09
2023-01-15T12:12:18.524Z,71.00
2023-01-15T12:15:06.900Z,70.76
2023-01-15T12:17:48.223Z,71.05
2023-01-15T12:20:21.113Z,70.86
2023-01-15T12:23:02.012Z,70.85
2023-01-15T12:25:35.152Z,70.74
2023-01-15T12:28:08.596Z,70.60
2023-01-15T12:30:41.175Z,70.30
2023-01-15T12:33:28.325Z,70.70
2023-01-15T12:36:00.118Z,70.71
2023-01-15T12:38:44.376Z,70.69
2023-01-15T12:41:15.628Z,70.45
2023-01-15T12:44:05.049Z,70.64
2023-01-15T12:46:35.802Z,70.83
2023-01-15T12:49:08.349Z,70.61
2023-01-15T12:51:40.868Z,70.61
2023-01-15T12:54:12.957Z,70.47
2023-01-15T12:56:46.762Z,70.37
2023-01-15T12:59:18.636Z,70.01
2023-01-15T13:01:50.715Z,70.02
2023-01-15T13:04:23.312Z,69.53
2023-01-15T13:06:55.360Z,69.42
2023-01-15T13:09:33.363Z,69.65
2023-01-15T13:12:04.071Z,69.26
2023-01-15T13:14:34.748Z,69.02
2023-01-15T13:17:06.622Z,68.72
2023-01-15T13:19:40.005Z,68.89
2023-01-15T13:22:12.248Z,69.07
2023-01-15T13:24:53.455Z,69.06
2023-01-15T13:27:26.862Z,69.08
2023-01-15T13:30:02.101Z,68.97
2023-01-15T13:32:33.444Z,68.88
2023-01-15T13:35:06.696Z,68.88
2023-01-15T13:37:38.540Z,68.77
2023-01-15T13:40:11.697Z,68.90
2023-01-15T13:42:44.584Z,68.82
2023-01-15T13:45:33.127Z,68.85
2023-01-15T13:48:05.800Z,68.80
2023-01-15T13:50:37.380Z,68.61
2023-01-15T13:53:09.923Z,68.48
2023-01-15T13:55:41.288Z,68.37
2023-01-15T13:58:19.551Z,68.43
2023-01-15T14:00:50.288Z,68.45
2023-01-15T14:03:27.839Z,68.35
2023-01-15T14:05:58.832Z,68.25
2023-01-15T14:08:30.791Z,68.32
2023-01-15T14:11:03.132Z,68.21
2023-01-15T14:13:42.797Z,68.34
2023-01-15T14:16:16.334Z,68.25
2023-01-15T14:19:08.020Z,68.23
2023-01-15T14:21:42.431Z,68.40
2023-01-15T14:24:21.275Z,68.26
2023-01-15T14:26:54.962Z,68.16
2023-01-15T14:29:42.249Z,68.09
2023-01-15T14:32:13.234Z,68.04
2023-01-15T14:34:43.967Z,68.08
2023-01-15T14:37:24.862Z,67.88
2023-01-15T14:39:58.787Z,67.85
2023-01-15T14:42:47.592Z,68.13
2023-01-15T14:45:21.124Z,68.12
2023-01-15T14:47:52.285Z,68.07
2023-01-15T14:50:31.468Z,68.19
2023-01-15T14:53:03.869Z,68.08
2023-01-15T14:55:35.347Z,68.05
2023-01-15T14:58:08.669Z,67.96
2023-01-15T15:00:39.899Z,67.87
2023-01-15T15:03:16.672Z,67.66
2023-01-15T15:05:47.558Z,67.90
2023-01-15T15:08:18.414Z,67.71
2023-01-15T15:10:51.332Z,67.63
2023-01-15T15:13:27.936Z,67.63
2023-01-15T15:15:59.862Z,67.75
2023-01-15T15:18:32.031Z,67.59
2023-01-15T15:21:05.713Z,67.70
2023-01-15T15:23:39.189Z,67.68
2023-01-15T15:26:19.284Z,67.41
2023-01-15T15:28:58.476Z,67.44
2023-01-15T15:31:30.061Z,67.29
2023-01-15T15:34:00.778Z,67.24
2023-01-15T15:36:32.931Z,67.34
2023-01-15T15:39:05.354Z,67.31
2023-01-15T15:41:54.604Z,67.21
2023-01-15T15:44:44.134Z,67.15
2023-01-15T15:47:39.989Z,67.21
2023-01-15T15:50:22.055Z,67.24
2023-01-15T15:52:53.076Z,67.08
2023-01-15T15:55:23.862Z,67.19
2023-01-15T15:57:55.456Z,67.12
2023-01-15T16:00:27.334Z,67.02
2023-01-15T16:02:58.127Z,66.93
2023-01-15T16:05:31.949Z,67.00
2023-01-15T16:08:10.683Z,66.95
2023-01-15T16:10:41.418Z,66.75
2023-01-15T16:13:14.945Z,66.69
2023-01-15T16:15:48.652Z,66.68
2023-01-15T16:18:20.943Z,66.64
2023-01-15T16:20:52.693Z,66.79
2023-01-15T16:23:24.583Z,66.74
2023-01-15T16:25:59.874Z,66.66
2023-01-15T16:28:31.444Z,66.83
2023-01-15T16:31:03.392Z,66.85
2023-01-15T16:33:34.121Z,66.82
2023-01-15T16:36:06.632Z,66.63
2023-01-15T16:38:38.068Z,66.68
2023-01-15T16:41:08.945Z,66.57
2023-01-15T16:43:50.740Z,66.48
2023-01-15T16:46:22.529Z,66.56
2023-01-15T16:48:53.292Z,66.52
2023-01-15T16:51:31.802Z,66.63
2023-01-15T16:54:04.198Z,66.63
2023-01-15T16:56:54.898Z,66.67
2023-01-15T16:59:40.816Z,66.61
2023-01-15T17:02:14.209Z,66.66
2023-01-15T17:04:45.261Z,66.61
2023-01-15T17:07:18.748Z,66.59
2023-01-15T17:09:50.782Z,66.46
2023-01-15T17:12:24.312Z,66.47
2023-01-15T17:14:54.995Z,66.47
2023-01-15T17:17:29.053Z,66.53
2023-01-15T17:19:59.826Z,66.44
2023-01-15T17:22:31.618Z,66.38
2023-01-15T17:25:02.479Z,66.34
2023-01-15T17:27:33.378Z,66.37
2023-01-15T17:30:04.535Z,66.38
2023-01-15T17:32:36.325Z,66.21
2023-01-15T17:35:08.992Z,66.30
2023-01-15T17:37:39.839Z,66.41
2023-01-15T17:40:13.503Z,66.28
2023-01-15T17:42:44.305Z,66.29
2023-01-15T17:45:15.050Z,66.32
2023-01-15T17:47:45.701Z,66.33
2023-01-15T17:50:17.633Z,66.24
2023-01-15T17:52:48.609Z,66.41
2023-01-15T17:55:38.432Z,66.44
2023-01-15T17:58:27.680Z,66.25
2023-01-15T18:01:15.890Z,66.43
2023-01-15T18:04:05.448Z,66.31
2023-01-15T18:06:36.220Z,66.44
2023-01-15T18:09:07.387Z,66.40
2023-01-15T18:11:39.634Z,66.26
2023-01-15T18:14:10.435Z,66.49
2023-01-15T18:16:41.167Z,66.39
2023-01-15T18:19:12.107Z,66.33
2023-01-15T18:21:43.227Z,66.43
2023-01-15T18:28:17.744Z,66.33
2023-01-15T18:30:49.614Z,65.91
2023-01-15T18:33:20.314Z,65.96
2023-01-15T18:35:51.130Z,66.28
2023-01-15T18:38:21.959Z,66.43
2023-01-15T18:40:52.930Z,66.37
2023-01-15T18:44:00.366Z,66.34
2023-01-15T18:46:48.891Z,66.05
2023-01-15T18:49:19.743Z,66.19
2023-01-15T18:52:13.041Z,66.21
2023-01-15T18:54:45.697Z,66.26
2023-01-15T18:57:17.013Z,66.13
2023-01-15T18:59:48.541Z,66.16
2023-01-15T19:02:20.025Z,66.17
2023-01-15T19:04:50.923Z,66.14
2023-01-15T19:07:22.216Z,66.33
2023-01-15T19:09:54.481Z,66.23
2023-01-15T19:12:25.258Z,66.10
2023-01-15T19:15:13.788Z,66.07
2023-01-15T19:18:02.181Z,66.18
2023-01-15T19:20:32.580Z,66.36
2023-01-15T19:23:06.005Z,66.33
2023-01-15T19:25:39.961Z,66.18
2023-01-15T19:28:11.614Z,66.18
2023-01-15T19:30:42.495Z,66.14
2023-01-15T19:33:13.347Z,66.23
2023-01-15T19:35:44.700Z,66.30
2023-01-15T19:38:15.654Z,66.27
2023-01-15T19:40:46.284Z,66.35
2023-01-15T19:43:34.534Z,66.64
2023-01-15T19:46:31.133Z,66.67
2023-01-15T19:49:20.812Z,66.46
2023-01-15T19:52:09.121Z,66.64
2023-01-15T19:54:59.898Z,66.54
2023-01-15T19:57:30.679Z,66.50
2023-01-15T20:00:01.946Z,66.70
2023-01-15T20:02:33.697Z,66.62
2023-01-15T20:05:04.843Z,66.47
2023-01-15T20:07:35.490Z,66.76
2023-01-15T20:10:07.349Z,66.80
2023-01-15T20:12:55.722Z,66.64
2023-01-15T20:15:26.548Z,66.63
2023-01-15T20:17:57.480Z,66.53
2023-01-15T20:20:29.194Z,66.69
2023-01-15T20:22:59.988Z,66.66
2023-01-15T20:25:30.738Z,66.51
2023-01-15T20:28:01.476Z,66.55
2023-01-15T20:30:32.319Z,66.45
2023-01-15T20:33:03.574Z,66.50
2023-01-15T20:35:34.364Z,66.50
2023-01-15T20:38:05.094Z,66.49
2023-01-15T20:40:35.960Z,66.27
2023-01-15T20:43:24.416Z,66.53
2023-01-15T20:45:56.484Z,66.54
2023-01-15T20:48:44.707Z,66.50
2023-01-15T20:51:15.701Z,66.72
2023-01-15T20:53:46.680Z,66.50
2023-01-15T20:56:18.909Z,66.60
2023-01-15T20:58:51.655Z,66.71
2023-01-15T21:01:24.755Z,66.79
2023-01-15T21:03:55.476Z,66.78
2023-01-15T21:06:26.352Z,66.80
2023-01-15T21:08:57.134Z,66.78
2023-01-15T21:11:27.793Z,66.73
2023-01-15T21:13:58.508Z,66.75
2023-01-15T21:16:29.171Z,66.73
2023-01-15T21:19:01.437Z,66.75
2023-01-15T21:21:32.353Z,67.08
2023-01-15T21:24:03.578Z,66.75
2023-01-15T21:26:35.533Z,66.71
2023-01-15T21:29:06.385Z,66.97
2023-01-15T21:31:37.223Z,67.29
2023-01-15T21:34:07.898Z,66.84
2023-01-15T21:36:38.687Z,67.06
2023-01-15T21:39:10.670Z,66.99
2023-01-15T21:41:59.139Z,66.91
2023-01-15T21:44:34.653Z,66.83
2023-01-15T21:47:06.040Z,66.71
2023-01-15T21:49:36.902Z,66.92
2023-01-15T21:52:08.776Z,67.01
2023-01-15T21:54:39.548Z,66.52
2023-01-15T21:57:10.312Z,66.67
2023-01-15T21:59:41.435Z,66.74
2023-01-15T22:02:16.850Z,66.83
2023-01-15T22:04:48.737Z,67.07
2023-01-15T22:07:19.802Z,67.04
2023-01-15T22:09:50.516Z,67.19
2023-01-15T22:12:21.389Z,67.20
2023-01-15T22:14:53.869Z,66.96
2023-01-15T22:17:24.640Z,66.86
2023-01-15T22:19:55.411Z,66.92
2023-01-15T22:22:31.220Z,66.80
2023-01-15T22:25:02.072Z,67.00
2023-01-15T22:27:34.742Z,66.80
2023-01-15T22:30:06.157Z,67.12
2023-01-15T22:32:36.819Z,67.17
2023-01-15T22:35:08.634Z,66.81
2023-01-15T22:37:39.347Z,66.97
2023-01-15T22:40:11.050Z,66.81
2023-01-15T22:42:41.789Z,66.99
2023-01-15T22:45:12.832Z,66.91
2023-01-15T22:47:43.520Z,66.75
2023-01-15T22:50:14.260Z,67.33
2023-01-15T22:52:45.009Z,67.08
2023-01-15T22:55:15.799Z,67.17
2023-01-15T22:57:47.881Z,67.20
2023-01-15T23:00:18.876Z,67.17
2023-01-15T23:02:55.781Z,66.97
2023-01-15T23:05:26.559Z,66.90
2023-01-15T23:07:57.259Z,67.10
2023-01-15T23:10:27.943Z,67.12
2023-01-15T23:12:58.639Z,67.10
2023-01-15T23:15:29.421Z,66.79
2023-01-15T23:18:00.135Z,67.03
2023-01-15T23:20:30.784Z,66.90
2023-01-15T23:23:01.506Z,67.30
2023-01-15T23:25:32.214Z,67.11
2023-01-15T23:28:02.850Z,67.28
2023-01-15T23:30:33.514Z,67.46
2023-01-15T23:33:04.124Z,67.28
2023-01-15T23:35:35.026Z,67.13
2023-01-15T23:38:05.678Z,67.36
2023-01-15T23:40:36.462Z,67.20
2023-01-15T23:43:24.960Z,67.43
2023-01-15T23:46:13.254Z,67.57
2023-01-15T23:48:43.903Z,67.30
2023-01-15T23:51:14.639Z,66.98
2023-01-15T23:53:45.367Z,67.05
2023-01-15T23:56:16.081Z,67.25
2023-01-15T23:58:47.492Z,67.10
